sensor_id;sensor_type;location;lat;lon;timestamp;P1;durP1;ratioP1;P2;durP2;ratioP2
15285;SDS011;7744;52.172;10.668;2023-04-16T00:00:14;57.43;;;47.23;;
15285;SDS011;7744;52.172;10.668;2023-04-16T00:02:40;55.93;;;48.03;;
15285;SDS011;7744;52.172;10.668;2023-04-16T00:05:05;56.40;;;46.50;;
15285;SDS011;7744;52.172;10.668;2023-04-16T00:07:31;56.27;;;47.17;;
15285;SDS011;7744;52.172;10.668;2023-04-16T00:09:57;54.10;;;46.20;;
15285;SDS011;7744;52.172;10.668;2023-04-16T00:12:22;55.43;;;46.83;;
15285;SDS011;7744;52.172;10.668;2023-04-16T00:14:48;60.90;;;48.47;;
15285;SDS011;7744;52.172;10.668;2023-04-16T00:17:14;58.57;;;47.37;;
15285;SDS011;7744;52.172;10.668;2023-04-16T00:19:39;57.40;;;46.13;;
15285;SDS011;7744;52.172;10.668;2023-04-16T00:22:05;61.87;;;49.80;;
15285;SDS011;7744;52.172;10.668;2023-04-16T00:24:30;62.63;;;49.97;;
15285;SDS011;7744;52.172;10.668;2023-04-16T00:26:56;62.87;;;50.03;;
15285;SDS011;7744;52.172;10.668;2023-04-16T00:29:21;64.83;;;50.73;;
15285;SDS011;7744;52.172;10.668;2023-04-16T00:31:47;61.10;;;50.37;;
15285;SDS011;7744;52.172;10.668;2023-04-16T00:34:13;65.40;;;52.83;;
15285;SDS011;7744;52.172;10.668;2023-04-16T00:36:38;68.60;;;52.60;;
15285;SDS011;7744;52.172;10.668;2023-04-16T00:39:04;64.80;;;52.00;;
15285;SDS011;7744;52.172;10.668;2023-04-16T00:41:30;68.00;;;53.87;;
15285;SDS011;7744;52.172;10.668;2023-04-16T00:43:55;60.67;;;49.67;;
15285;SDS011;7744;52.172;10.668;2023-04-16T00:46:22;65.03;;;51.33;;
15285;SDS011;7744;52.172;10.668;2023-04-16T00:48:48;61.47;;;50.43;;
15285;SDS011;7744;52.172;10.668;2023-04-16T00:51:15;62.10;;;50.43;;
15285;SDS011;7744;52.172;10.668;2023-04-16T00:53:42;61.23;;;50.27;;
15285;SDS011;7744;52.172;10.668;2023-04-16T00:56:09;57.97;;;48.37;;
15285;SDS011;7744;52.172;10.668;2023-04-16T00:58:37;53.53;;;45.90;;
15285;SDS011;7744;52.172;10.668;2023-04-16T01:01:03;52.17;;;43.77;;
15285;SDS011;7744;52.172;10.668;2023-04-16T01:03:41;54.20;;;46.13;;
15285;SDS011;7744;52.172;10.668;2023-04-16T01:06:09;51.53;;;45.23;;
15285;SDS011;7744;52.172;10.668;2023-04-16T01:08:35;54.37;;;46.80;;
15285;SDS011;7744;52.172;10.668;2023-04-16T01:11:01;53.23;;;45.83;;
15285;SDS011;7744;52.172;10.668;2023-04-16T01:13:27;58.30;;;47.63;;
15285;SDS011;7744;52.172;10.668;2023-04-16T01:15:53;60.00;;;47.60;;
15285;SDS011;7744;52.172;10.668;2023-04-16T01:18:20;61.07;;;47.63;;
15285;SDS011;7744;52.172;10.668;2023-04-16T01:20:46;58.30;;;46.73;;
15285;SDS011;7744;52.172;10.668;2023-04-16T01:23:12;63.33;;;48.17;;
15285;SDS011;7744;52.172;10.668;2023-04-16T01:25:38;63.87;;;50.27;;
15285;SDS011;7744;52.172;10.668;2023-04-16T01:28:04;64.83;;;49.17;;
15285;SDS011;7744;52.172;10.668;2023-04-16T01:30:30;68.60;;;51.57;;
15285;SDS011;7744;52.172;10.668;2023-04-16T01:32:56;66.17;;;49.13;;
15285;SDS011;7744;52.172;10.668;2023-04-16T01:35:22;71.10;;;52.13;;
15285;SDS011;7744;52.172;10.668;2023-04-16T01:37:48;71.93;;;51.50;;
15285;SDS011;7744;52.172;10.668;2023-04-16T01:40:14;71.00;;;50.93;;
15285;SDS011;7744;52.172;10.668;2023-04-16T01:42:40;71.77;;;51.73;;
15285;SDS011;7744;52.172;10.668;2023-04-16T01:45:06;73.77;;;52.43;;
15285;SDS011;7744;52.172;10.668;2023-04-16T01:47:31;70.43;;;50.40;;
15285;SDS011;7744;52.172;10.668;2023-04-16T01:49:58;69.47;;;49.30;;
15285;SDS011;7744;52.172;10.668;2023-04-16T01:52:24;75.97;;;52.27;;
15285;SDS011;7744;52.172;10.668;2023-04-16T01:54:50;73.10;;;50.87;;
15285;SDS011;7744;52.172;10.668;2023-04-16T01:57:15;69.93;;;51.70;;
15285;SDS011;7744;52.172;10.668;2023-04-16T01:59:41;72.30;;;50.97;;
15285;SDS011;7744;52.172;10.668;2023-04-16T02:02:07;70.23;;;51.00;;
15285;SDS011;7744;52.172;10.668;2023-04-16T02:04:38;74.17;;;50.67;;
15285;SDS011;7744;52.172;10.668;2023-04-16T02:07:05;70.90;;;52.00;;
15285;SDS011;7744;52.172;10.668;2023-04-16T02:09:33;77.50;;;51.23;;
15285;SDS011;7744;52.172;10.668;2023-04-16T02:11:59;76.23;;;51.23;;
15285;SDS011;7744;52.172;10.668;2023-04-16T02:14:27;72.30;;;49.53;;
15285;SDS011;7744;52.172;10.668;2023-04-16T02:16:53;70.07;;;49.97;;
15285;SDS011;7744;52.172;10.668;2023-04-16T02:19:18;78.80;;;51.53;;
15285;SDS011;7744;52.172;10.668;2023-04-16T02:21:44;67.60;;;47.03;;
15285;SDS011;7744;52.172;10.668;2023-04-16T02:24:09;71.20;;;51.03;;
15285;SDS011;7744;52.172;10.668;2023-04-16T02:26:35;73.27;;;51.87;;
15285;SDS011;7744;52.172;10.668;2023-04-16T02:29:00;82.53;;;53.00;;
15285;SDS011;7744;52.172;10.668;2023-04-16T02:31:26;70.43;;;50.07;;
15285;SDS011;7744;52.172;10.668;2023-04-16T02:33:52;72.33;;;49.67;;
15285;SDS011;7744;52.172;10.668;2023-04-16T02:36:18;70.77;;;49.07;;
15285;SDS011;7744;52.172;10.668;2023-04-16T02:38:44;72.20;;;49.43;;
15285;SDS011;7744;52.172;10.668;2023-04-16T02:41:09;73.93;;;51.03;;
15285;SDS011;7744;52.172;10.668;2023-04-16T02:43:35;72.17;;;50.53;;
15285;SDS011;7744;52.172;10.668;2023-04-16T02:46:01;71.97;;;50.10;;
15285;SDS011;7744;52.172;10.668;2023-04-16T02:48:26;74.07;;;48.27;;
15285;SDS011;7744;52.172;10.668;2023-04-16T02:50:52;78.53;;;50.10;;
15285;SDS011;7744;52.172;10.668;2023-04-16T02:53:17;78.53;;;51.87;;
15285;SDS011;7744;52.172;10.668;2023-04-16T02:55:53;77.90;;;51.73;;
15285;SDS011;7744;52.172;10.668;2023-04-16T02:58:19;79.93;;;51.70;;
15285;SDS011;7744;52.172;10.668;2023-04-16T03:00:46;82.37;;;52.17;;
15285;SDS011;7744;52.172;10.668;2023-04-16T03:03:12;77.43;;;50.07;;
15285;SDS011;7744;52.172;10.668;2023-04-16T03:05:37;73.00;;;48.97;;
15285;SDS011;7744;52.172;10.668;2023-04-16T03:08:03;73.27;;;50.63;;
15285;SDS011;7744;52.172;10.668;2023-04-16T03:10:29;76.17;;;50.47;;
15285;SDS011;7744;52.172;10.668;2023-04-16T03:12:55;75.33;;;49.63;;
15285;SDS011;7744;52.172;10.668;2023-04-16T03:15:20;77.20;;;49.63;;
15285;SDS011;7744;52.172;10.668;2023-04-16T03:17:46;75.30;;;49.87;;
15285;SDS011;7744;52.172;10.668;2023-04-16T03:20:11;71.13;;;48.40;;
15285;SDS011;7744;52.172;10.668;2023-04-16T03:22:38;68.57;;;47.50;;
15285;SDS011;7744;52.172;10.668;2023-04-16T03:25:04;77.67;;;50.93;;
15285;SDS011;7744;52.172;10.668;2023-04-16T03:27:31;80.43;;;50.10;;
15285;SDS011;7744;52.172;10.668;2023-04-16T03:29:56;69.53;;;47.37;;
15285;SDS011;7744;52.172;10.668;2023-04-16T03:32:22;69.80;;;47.70;;
15285;SDS011;7744;52.172;10.668;2023-04-16T03:34:48;68.80;;;47.00;;
15285;SDS011;7744;52.172;10.668;2023-04-16T03:37:13;70.53;;;48.17;;
15285;SDS011;7744;52.172;10.668;2023-04-16T03:39:39;66.47;;;45.10;;
15285;SDS011;7744;52.172;10.668;2023-04-16T03:42:04;64.67;;;45.73;;
15285;SDS011;7744;52.172;10.668;2023-04-16T03:44:30;75.97;;;50.07;;
15285;SDS011;7744;52.172;10.668;2023-04-16T03:46:55;72.63;;;47.97;;
15285;SDS011;7744;52.172;10.668;2023-04-16T03:49:21;72.60;;;48.27;;
15285;SDS011;7744;52.172;10.668;2023-04-16T03:51:47;71.07;;;47.67;;
15285;SDS011;7744;52.172;10.668;2023-04-16T03:54:12;67.00;;;45.80;;
15285;SDS011;7744;52.172;10.668;2023-04-16T03:56:41;63.63;;;44.33;;
15285;SDS011;7744;52.172;10.668;2023-04-16T03:59:07;65.53;;;45.10;;
15285;SDS011;7744;52.172;10.668;2023-04-16T04:01:33;72.37;;;48.40;;
15285;SDS011;7744;52.172;10.668;2023-04-16T04:03:58;67.47;;;46.80;;
15285;SDS011;7744;52.172;10.668;2023-04-16T04:06:24;61.70;;;44.87;;
15285;SDS011;7744;52.172;10.668;2023-04-16T04:08:50;71.83;;;47.03;;
15285;SDS011;7744;52.172;10.668;2023-04-16T04:11:15;62.57;;;44.67;;
15285;SDS011;7744;52.172;10.668;2023-04-16T04:13:41;64.27;;;43.30;;
15285;SDS011;7744;52.172;10.668;2023-04-16T04:16:06;62.10;;;43.67;;
15285;SDS011;7744;52.172;10.668;2023-04-16T04:18:32;69.60;;;47.27;;
15285;SDS011;7744;52.172;10.668;2023-04-16T04:20:57;70.60;;;46.20;;
15285;SDS011;7744;52.172;10.668;2023-04-16T04:23:23;74.30;;;47.13;;
15285;SDS011;7744;52.172;10.668;2023-04-16T04:25:49;72.03;;;46.97;;
15285;SDS011;7744;52.172;10.668;2023-04-16T04:28:14;72.83;;;47.10;;
15285;SDS011;7744;52.172;10.668;2023-04-16T04:30:40;69.97;;;44.57;;
15285;SDS011;7744;52.172;10.668;2023-04-16T04:33:06;66.77;;;44.67;;
15285;SDS011;7744;52.172;10.668;2023-04-16T04:35:32;58.40;;;41.47;;
15285;SDS011;7744;52.172;10.668;2023-04-16T04:37:57;64.30;;;42.80;;
15285;SDS011;7744;52.172;10.668;2023-04-16T04:40:23;58.63;;;41.03;;
15285;SDS011;7744;52.172;10.668;2023-04-16T04:42:48;64.87;;;41.73;;
15285;SDS011;7744;52.172;10.668;2023-04-16T04:45:14;57.33;;;39.57;;
15285;SDS011;7744;52.172;10.668;2023-04-16T04:47:40;56.37;;;40.40;;
15285;SDS011;7744;52.172;10.668;2023-04-16T04:50:05;63.17;;;40.73;;
15285;SDS011;7744;52.172;10.668;2023-04-16T04:52:31;60.57;;;42.63;;
15285;SDS011;7744;52.172;10.668;2023-04-16T04:54:57;57.87;;;41.03;;
15285;SDS011;7744;52.172;10.668;2023-04-16T04:57:22;58.67;;;41.80;;
15285;SDS011;7744;52.172;10.668;2023-04-16T04:59:48;59.37;;;42.93;;
15285;SDS011;7744;52.172;10.668;2023-04-16T05:02:14;64.23;;;43.30;;
15285;SDS011;7744;52.172;10.668;2023-04-16T05:04:39;60.87;;;42.83;;
15285;SDS011;7744;52.172;10.668;2023-04-16T05:07:05;59.00;;;41.83;;
15285;SDS011;7744;52.172;10.668;2023-04-16T05:09:31;61.33;;;42.47;;
15285;SDS011;7744;52.172;10.668;2023-04-16T05:11:56;62.43;;;43.43;;
15285;SDS011;7744;52.172;10.668;2023-04-16T05:14:22;64.70;;;44.27;;
15285;SDS011;7744;52.172;10.668;2023-04-16T05:16:48;59.03;;;42.33;;
15285;SDS011;7744;52.172;10.668;2023-04-16T05:19:15;65.60;;;43.60;;
15285;SDS011;7744;52.172;10.668;2023-04-16T05:21:40;61.03;;;42.40;;
15285;SDS011;7744;52.172;10.668;2023-04-16T05:24:06;68.57;;;43.87;;
15285;SDS011;7744;52.172;10.668;2023-04-16T05:26:31;64.53;;;44.20;;
15285;SDS011;7744;52.172;10.668;2023-04-16T05:28:57;62.87;;;44.10;;
15285;SDS011;7744;52.172;10.668;2023-04-16T05:31:22;67.87;;;45.20;;
15285;SDS011;7744;52.172;10.668;2023-04-16T05:33:48;64.37;;;44.03;;
15285;SDS011;7744;52.172;10.668;2023-04-16T05:36:14;66.10;;;43.80;;
15285;SDS011;7744;52.172;10.668;2023-04-16T05:38:39;64.73;;;44.37;;
15285;SDS011;7744;52.172;10.668;2023-04-16T05:41:05;62.10;;;41.77;;
15285;SDS011;7744;52.172;10.668;2023-04-16T05:43:30;59.47;;;41.27;;
15285;SDS011;7744;52.172;10.668;2023-04-16T05:45:56;66.27;;;43.17;;
15285;SDS011;7744;52.172;10.668;2023-04-16T05:48:21;61.77;;;43.23;;
15285;SDS011;7744;52.172;10.668;2023-04-16T05:50:47;64.80;;;44.07;;
15285;SDS011;7744;52.172;10.668;2023-04-16T05:53:13;63.77;;;42.77;;
15285;SDS011;7744;52.172;10.668;2023-04-16T05:55:40;62.37;;;41.47;;
15285;SDS011;7744;52.172;10.668;2023-04-16T05:58:05;59.03;;;40.80;;
15285;SDS011;7744;52.172;10.668;2023-04-16T06:00:31;60.17;;;41.10;;
15285;SDS011;7744;52.172;10.668;2023-04-16T06:02:57;57.33;;;39.67;;
15285;SDS011;7744;52.172;10.668;2023-04-16T06:05:25;56.50;;;39.20;;
15285;SDS011;7744;52.172;10.668;2023-04-16T06:07:51;53.27;;;38.20;;
15285;SDS011;7744;52.172;10.668;2023-04-16T06:10:16;52.07;;;37.30;;
15285;SDS011;7744;52.172;10.668;2023-04-16T06:12:42;54.30;;;37.63;;
15285;SDS011;7744;52.172;10.668;2023-04-16T06:15:08;51.60;;;37.97;;
15285;SDS011;7744;52.172;10.668;2023-04-16T06:17:34;48.47;;;36.03;;
15285;SDS011;7744;52.172;10.668;2023-04-16T06:19:59;47.57;;;35.77;;
15285;SDS011;7744;52.172;10.668;2023-04-16T06:22:25;49.20;;;36.10;;
15285;SDS011;7744;52.172;10.668;2023-04-16T06:24:51;44.53;;;35.47;;
15285;SDS011;7744;52.172;10.668;2023-04-16T06:27:17;46.43;;;35.83;;
15285;SDS011;7744;52.172;10.668;2023-04-16T06:29:42;43.77;;;33.93;;
15285;SDS011;7744;52.172;10.668;2023-04-16T06:32:08;45.23;;;34.77;;
15285;SDS011;7744;52.172;10.668;2023-04-16T06:34:34;47.97;;;36.47;;
15285;SDS011;7744;52.172;10.668;2023-04-16T06:37:01;55.50;;;42.73;;
15285;SDS011;7744;52.172;10.668;2023-04-16T06:39:26;45.97;;;36.50;;
15285;SDS011;7744;52.172;10.668;2023-04-16T06:41:52;47.57;;;38.27;;
15285;SDS011;7744;52.172;10.668;2023-04-16T06:44:18;47.60;;;37.50;;
15285;SDS011;7744;52.172;10.668;2023-04-16T06:46:43;47.77;;;38.53;;
15285;SDS011;7744;52.172;10.668;2023-04-16T06:49:09;50.43;;;38.97;;
15285;SDS011;7744;52.172;10.668;2023-04-16T06:51:34;51.80;;;38.17;;
15285;SDS011;7744;52.172;10.668;2023-04-16T06:54:00;54.20;;;38.17;;
15285;SDS011;7744;52.172;10.668;2023-04-16T06:56:26;50.37;;;37.93;;
15285;SDS011;7744;52.172;10.668;2023-04-16T06:58:51;56.07;;;40.10;;
15285;SDS011;7744;52.172;10.668;2023-04-16T07:01:17;55.93;;;40.70;;
15285;SDS011;7744;52.172;10.668;2023-04-16T07:03:43;59.60;;;41.00;;
15285;SDS011;7744;52.172;10.668;2023-04-16T07:06:08;53.23;;;40.47;;
15285;SDS011;7744;52.172;10.668;2023-04-16T07:08:34;57.77;;;39.07;;
15285;SDS011;7744;52.172;10.668;2023-04-16T07:11:00;55.93;;;40.63;;
15285;SDS011;7744;52.172;10.668;2023-04-16T07:13:25;57.77;;;40.63;;
15285;SDS011;7744;52.172;10.668;2023-04-16T07:15:51;55.60;;;40.67;;
15285;SDS011;7744;52.172;10.668;2023-04-16T07:18:17;56.13;;;39.50;;
15285;SDS011;7744;52.172;10.668;2023-04-16T07:20:42;53.10;;;38.50;;
15285;SDS011;7744;52.172;10.668;2023-04-16T07:23:08;58.73;;;41.40;;
15285;SDS011;7744;52.172;10.668;2023-04-16T07:25:34;51.23;;;38.07;;
15285;SDS011;7744;52.172;10.668;2023-04-16T07:27:59;52.30;;;38.57;;
15285;SDS011;7744;52.172;10.668;2023-04-16T07:30:25;52.40;;;38.00;;
15285;SDS011;7744;52.172;10.668;2023-04-16T07:32:56;52.27;;;38.97;;
15285;SDS011;7744;52.172;10.668;2023-04-16T07:35:22;53.63;;;39.10;;
15285;SDS011;7744;52.172;10.668;2023-04-16T07:37:47;52.27;;;37.27;;
15285;SDS011;7744;52.172;10.668;2023-04-16T07:40:13;54.70;;;38.43;;
15285;SDS011;7744;52.172;10.668;2023-04-16T07:42:39;54.03;;;39.60;;
15285;SDS011;7744;52.172;10.668;2023-04-16T07:45:05;56.50;;;39.13;;
15285;SDS011;7744;52.172;10.668;2023-04-16T07:47:31;53.13;;;39.27;;
15285;SDS011;7744;52.172;10.668;2023-04-16T07:49:57;53.30;;;36.80;;
15285;SDS011;7744;52.172;10.668;2023-04-16T07:52:22;47.77;;;36.73;;
15285;SDS011;7744;52.172;10.668;2023-04-16T07:54:48;54.03;;;38.50;;
15285;SDS011;7744;52.172;10.668;2023-04-16T07:57:13;47.67;;;35.50;;
15285;SDS011;7744;52.172;10.668;2023-04-16T07:59:40;48.07;;;34.63;;
15285;SDS011;7744;52.172;10.668;2023-04-16T08:02:06;48.57;;;35.87;;
15285;SDS011;7744;52.172;10.668;2023-04-16T08:04:33;50.20;;;36.53;;
15285;SDS011;7744;52.172;10.668;2023-04-16T08:06:58;51.40;;;35.50;;
15285;SDS011;7744;52.172;10.668;2023-04-16T08:09:25;53.63;;;35.93;;
15285;SDS011;7744;52.172;10.668;2023-04-16T08:11:52;52.70;;;36.63;;
15285;SDS011;7744;52.172;10.668;2023-04-16T08:14:18;49.17;;;36.73;;
15285;SDS011;7744;52.172;10.668;2023-04-16T08:16:44;49.67;;;34.53;;
15285;SDS011;7744;52.172;10.668;2023-04-16T08:19:09;51.87;;;35.87;;
15285;SDS011;7744;52.172;10.668;2023-04-16T08:21:35;48.20;;;35.67;;
15285;SDS011;7744;52.172;10.668;2023-04-16T08:24:01;50.00;;;35.47;;
15285;SDS011;7744;52.172;10.668;2023-04-16T08:26:26;46.23;;;34.10;;
15285;SDS011;7744;52.172;10.668;2023-04-16T08:28:52;45.60;;;33.30;;
15285;SDS011;7744;52.172;10.668;2023-04-16T08:31:17;44.67;;;33.20;;
15285;SDS011;7744;52.172;10.668;2023-04-16T08:33:43;44.83;;;32.87;;
15285;SDS011;7744;52.172;10.668;2023-04-16T08:36:09;42.97;;;31.80;;
15285;SDS011;7744;52.172;10.668;2023-04-16T08:38:35;39.13;;;29.27;;
15285;SDS011;7744;52.172;10.668;2023-04-16T08:41:01;41.70;;;32.23;;
15285;SDS011;7744;52.172;10.668;2023-04-16T08:43:30;36.63;;;28.67;;
15285;SDS011;7744;52.172;10.668;2023-04-16T08:45:58;40.17;;;30.50;;
15285;SDS011;7744;52.172;10.668;2023-04-16T08:48:27;39.83;;;30.30;;
15285;SDS011;7744;52.172;10.668;2023-04-16T08:50:56;38.00;;;29.00;;
15285;SDS011;7744;52.172;10.668;2023-04-16T08:53:25;36.97;;;29.77;;
15285;SDS011;7744;52.172;10.668;2023-04-16T08:55:59;35.93;;;28.10;;
15285;SDS011;7744;52.172;10.668;2023-04-16T08:58:30;38.27;;;29.50;;
15285;SDS011;7744;52.172;10.668;2023-04-16T09:00:59;35.07;;;27.43;;
15285;SDS011;7744;52.172;10.668;2023-04-16T09:03:27;34.03;;;27.37;;
15285;SDS011;7744;52.172;10.668;2023-04-16T09:05:55;35.83;;;27.37;;
15285;SDS011;7744;52.172;10.668;2023-04-16T09:08:24;32.77;;;27.37;;
15285;SDS011;7744;52.172;10.668;2023-04-16T09:10:50;34.23;;;27.57;;
15285;SDS011;7744;52.172;10.668;2023-04-16T09:13:15;30.90;;;24.73;;
15285;SDS011;7744;52.172;10.668;2023-04-16T09:15:44;32.13;;;26.63;;
15285;SDS011;7744;52.172;10.668;2023-04-16T09:18:10;28.23;;;24.40;;
15285;SDS011;7744;52.172;10.668;2023-04-16T09:20:36;32.07;;;24.77;;
15285;SDS011;7744;52.172;10.668;2023-04-16T09:23:02;29.03;;;24.23;;
15285;SDS011;7744;52.172;10.668;2023-04-16T09:25:31;29.93;;;23.90;;
15285;SDS011;7744;52.172;10.668;2023-04-16T09:27:58;33.90;;;24.53;;
15285;SDS011;7744;52.172;10.668;2023-04-16T09:30:25;32.87;;;24.87;;
15285;SDS011;7744;52.172;10.668;2023-04-16T09:32:51;32.13;;;26.47;;
15285;SDS011;7744;52.172;10.668;2023-04-16T09:35:45;50.40;;;34.67;;
15285;SDS011;7744;52.172;10.668;2023-04-16T09:38:14;32.83;;;24.97;;
15285;SDS011;7744;52.172;10.668;2023-04-16T09:40:40;37.93;;;27.57;;
15285;SDS011;7744;52.172;10.668;2023-04-16T09:43:10;30.57;;;24.53;;
15285;SDS011;7744;52.172;10.668;2023-04-16T09:45:47;29.63;;;24.80;;
15285;SDS011;7744;52.172;10.668;2023-04-16T09:48:32;29.70;;;23.70;;
15285;SDS011;7744;52.172;10.668;2023-04-16T09:50:58;31.90;;;23.90;;
15285;SDS011;7744;52.172;10.668;2023-04-16T09:53:25;29.30;;;23.73;;
15285;SDS011;7744;52.172;10.668;2023-04-16T09:55:59;29.47;;;22.97;;
15285;SDS011;7744;52.172;10.668;2023-04-16T09:58:26;28.53;;;23.53;;
15285;SDS011;7744;52.172;10.668;2023-04-16T10:01:03;30.40;;;24.43;;
15285;SDS011;7744;52.172;10.668;2023-04-16T10:03:31;29.80;;;24.63;;
15285;SDS011;7744;52.172;10.668;2023-04-16T10:06:20;32.93;;;26.50;;
15285;SDS011;7744;52.172;10.668;2023-04-16T10:08:48;34.97;;;26.73;;
15285;SDS011;7744;52.172;10.668;2023-04-16T10:11:15;33.90;;;27.60;;
15285;SDS011;7744;52.172;10.668;2023-04-16T10:13:41;37.80;;;28.90;;
15285;SDS011;7744;52.172;10.668;2023-04-16T10:16:07;35.93;;;28.07;;
15285;SDS011;7744;52.172;10.668;2023-04-16T10:18:35;34.70;;;27.40;;
15285;SDS011;7744;52.172;10.668;2023-04-16T10:21:02;36.67;;;28.30;;
15285;SDS011;7744;52.172;10.668;2023-04-16T10:23:28;35.83;;;26.77;;
15285;SDS011;7744;52.172;10.668;2023-04-16T10:25:54;35.37;;;26.63;;
15285;SDS011;7744;52.172;10.668;2023-04-16T10:28:20;35.23;;;27.33;;
15285;SDS011;7744;52.172;10.668;2023-04-16T10:30:47;35.60;;;27.17;;
15285;SDS011;7744;52.172;10.668;2023-04-16T10:33:18;34.97;;;27.57;;
15285;SDS011;7744;52.172;10.668;2023-04-16T10:35:46;34.10;;;26.30;;
15285;SDS011;7744;52.172;10.668;2023-04-16T10:38:22;32.23;;;26.90;;
15285;SDS011;7744;52.172;10.668;2023-04-16T10:40:49;34.60;;;27.53;;
15285;SDS011;7744;52.172;10.668;2023-04-16T10:43:22;31.03;;;25.10;;
15285;SDS011;7744;52.172;10.668;2023-04-16T10:45:49;35.03;;;27.77;;
15285;SDS011;7744;52.172;10.668;2023-04-16T10:48:17;33.30;;;26.90;;
15285;SDS011;7744;52.172;10.668;2023-04-16T10:50:52;36.33;;;26.87;;
15285;SDS011;7744;52.172;10.668;2023-04-16T10:53:29;35.37;;;27.57;;
15285;SDS011;7744;52.172;10.668;2023-04-16T10:56:01;31.20;;;25.97;;
15285;SDS011;7744;52.172;10.668;2023-04-16T10:58:35;32.53;;;25.40;;
15285;SDS011;7744;52.172;10.668;2023-04-16T11:01:11;32.40;;;26.17;;
15285;SDS011;7744;52.172;10.668;2023-04-16T11:03:47;28.87;;;24.07;;
15285;SDS011;7744;52.172;10.668;2023-04-16T11:06:14;30.37;;;25.43;;
15285;SDS011;7744;52.172;10.668;2023-04-16T11:08:42;32.17;;;25.40;;
15285;SDS011;7744;52.172;10.668;2023-04-16T11:11:10;29.33;;;24.60;;
15285;SDS011;7744;52.172;10.668;2023-04-16T11:13:36;31.20;;;24.93;;
15285;SDS011;7744;52.172;10.668;2023-04-16T11:16:02;30.20;;;25.37;;
15285;SDS011;7744;52.172;10.668;2023-04-16T11:18:31;30.67;;;26.03;;
15285;SDS011;7744;52.172;10.668;2023-04-16T11:20:56;30.83;;;24.90;;
15285;SDS011;7744;52.172;10.668;2023-04-16T11:23:22;31.37;;;26.93;;
15285;SDS011;7744;52.172;10.668;2023-04-16T11:25:48;31.63;;;25.23;;
15285;SDS011;7744;52.172;10.668;2023-04-16T11:28:19;31.20;;;25.87;;
15285;SDS011;7744;52.172;10.668;2023-04-16T11:30:45;32.13;;;26.10;;
15285;SDS011;7744;52.172;10.668;2023-04-16T11:33:10;27.97;;;24.87;;
15285;SDS011;7744;52.172;10.668;2023-04-16T11:35:36;33.13;;;26.17;;
15285;SDS011;7744;52.172;10.668;2023-04-16T11:38:03;32.33;;;28.10;;
15285;SDS011;7744;52.172;10.668;2023-04-16T11:40:32;30.27;;;24.73;;
15285;SDS011;7744;52.172;10.668;2023-04-16T11:43:16;29.23;;;24.37;;
15285;SDS011;7744;52.172;10.668;2023-04-16T11:51:15;29.80;;;25.40;;
15285;SDS011;7744;52.172;10.668;2023-04-16T11:53:51;32.60;;;24.57;;
15285;SDS011;7744;52.172;10.668;2023-04-16T11:56:27;28.00;;;23.80;;
15285;SDS011;7744;52.172;10.668;2023-04-16T11:59:04;30.50;;;25.30;;
